sensor_id;sensor_type;location;lat;lon;timestamp;temperature;humidity
4964;DHT22;2497;47.410;9.740;2023-11-21T00:01:36;8.60;99.90
4964;DHT22;2497;47.410;9.740;2023-11-21T00:04:03;8.70;99.90
4964;DHT22;2497;47.410;9.740;2023-11-21T00:06:33;8.70;99.90
4964;DHT22;2497;47.410;9.740;2023-11-21T00:09:01;8.60;99.90
4964;DHT22;2497;47.410;9.740;2023-11-21T00:11:29;8.60;99.90
4964;DHT22;2497;47.410;9.740;2023-11-21T00:13:58;8.60;99.90
4964;DHT22;2497;47.410;9.740;2023-11-21T00:16:26;8.50;99.90
4964;DHT22;2497;47.410;9.740;2023-11-21T00:18:53;8.60;99.90
4964;DHT22;2497;47.410;9.740;2023-11-21T00:21:20;8.70;99.90
4964;DHT22;2497;47.410;9.740;2023-11-21T00:23:47;8.70;99.90
4964;DHT22;2497;47.410;9.740;2023-11-21T00:26:16;8.60;99.90
4964;DHT22;2497;47.410;9.740;2023-11-21T00:28:43;8.50;99.90
4964;DHT22;2497;47.410;9.740;2023-11-21T00:31:11;8.50;99.90
4964;DHT22;2497;47.410;9.740;2023-11-21T00:33:39;8.50;99.90
4964;DHT22;2497;47.410;9.740;2023-11-21T00:36:07;8.50;99.90
4964;DHT22;2497;47.410;9.740;2023-11-21T00:38:35;8.40;99.90
4964;DHT22;2497;47.410;9.740;2023-11-21T00:41:05;8.40;99.90
4964;DHT22;2497;47.410;9.740;2023-11-21T00:43:34;8.40;99.90
4964;DHT22;2497;47.410;9.740;2023-11-21T00:46:04;8.40;99.90
4964;DHT22;2497;47.410;9.740;2023-11-21T00:48:32;8.40;99.90
4964;DHT22;2497;47.410;9.740;2023-11-21T00:51:00;8.50;99.90
4964;DHT22;2497;47.410;9.740;2023-11-21T00:53:27;8.40;99.90
4964;DHT22;2497;47.410;9.740;2023-11-21T00:55:54;8.40;99.90
4964;DHT22;2497;47.410;9.740;2023-11-21T00:58:23;8.30;99.90
4964;DHT22;2497;47.410;9.740;2023-11-21T01:00:51;8.30;99.90
4964;DHT22;2497;47.410;9.740;2023-11-21T01:03:18;8.30;99.90
4964;DHT22;2497;47.410;9.740;2023-11-21T01:05:46;8.30;99.90
4964;DHT22;2497;47.410;9.740;2023-11-21T01:08:15;8.30;99.90
4964;DHT22;2497;47.410;9.740;2023-11-21T01:10:45;8.30;99.90
4964;DHT22;2497;47.410;9.740;2023-11-21T01:13:13;8.20;99.90
4964;DHT22;2497;47.410;9.740;2023-11-21T01:15:41;8.20;99.90
4964;DHT22;2497;47.410;9.740;2023-11-21T01:18:09;8.20;99.90
4964;DHT22;2497;47.410;9.740;2023-11-21T01:20:36;8.20;99.90
4964;DHT22;2497;47.410;9.740;2023-11-21T01:23:03;8.30;99.90
4964;DHT22;2497;47.410;9.740;2023-11-21T01:25:31;8.40;99.90
4964;DHT22;2497;47.410;9.740;2023-11-21T01:27:58;8.30;99.90
4964;DHT22;2497;47.410;9.740;2023-11-21T01:30:25;8.30;99.90
4964;DHT22;2497;47.410;9.740;2023-11-21T01:32:52;8.30;99.90
4964;DHT22;2497;47.410;9.740;2023-11-21T01:35:20;8.40;99.90
4964;DHT22;2497;47.410;9.740;2023-11-21T01:37:47;8.30;99.90
4964;DHT22;2497;47.410;9.740;2023-11-21T01:40:15;8.40;99.90
4964;DHT22;2497;47.410;9.740;2023-11-21T01:42:42;8.30;99.90
4964;DHT22;2497;47.410;9.740;2023-11-21T01:45:10;8.20;99.90
4964;DHT22;2497;47.410;9.740;2023-11-21T01:47:38;8.20;99.90
4964;DHT22;2497;47.410;9.740;2023-11-21T01:50:08;8.20;99.90
4964;DHT22;2497;47.410;9.740;2023-11-21T01:52:39;8.30;99.90
4964;DHT22;2497;47.410;9.740;2023-11-21T01:55:07;8.30;99.90
4964;DHT22;2497;47.410;9.740;2023-11-21T01:57:35;8.30;99.90
4964;DHT22;2497;47.410;9.740;2023-11-21T02:00:05;8.40;99.90
4964;DHT22;2497;47.410;9.740;2023-11-21T02:02:42;8.30;99.90
4964;DHT22;2497;47.410;9.740;2023-11-21T02:05:10;8.30;99.90
4964;DHT22;2497;47.410;9.740;2023-11-21T02:07:39;8.20;99.90
4964;DHT22;2497;47.410;9.740;2023-11-21T02:10:07;8.20;99.90
4964;DHT22;2497;47.410;9.740;2023-11-21T02:12:34;8.20;99.90
4964;DHT22;2497;47.410;9.740;2023-11-21T02:15:02;8.20;99.90
4964;DHT22;2497;47.410;9.740;2023-11-21T02:17:31;8.20;99.90
4964;DHT22;2497;47.410;9.740;2023-11-21T02:19:58;8.20;99.90
4964;DHT22;2497;47.410;9.740;2023-11-21T02:22:27;8.20;99.90
4964;DHT22;2497;47.410;9.740;2023-11-21T02:24:59;8.20;99.90
4964;DHT22;2497;47.410;9.740;2023-11-21T02:27:26;8.20;99.90
4964;DHT22;2497;47.410;9.740;2023-11-21T02:29:53;8.30;99.90
4964;DHT22;2497;47.410;9.740;2023-11-21T02:32:21;8.30;99.90
4964;DHT22;2497;47.410;9.740;2023-11-21T02:34:48;8.30;99.90
4964;DHT22;2497;47.410;9.740;2023-11-21T02:37:16;8.20;99.90
4964;DHT22;2497;47.410;9.740;2023-11-21T02:39:43;8.20;99.90
4964;DHT22;2497;47.410;9.740;2023-11-21T02:42:12;8.20;99.90
4964;DHT22;2497;47.410;9.740;2023-11-21T02:44:39;8.30;99.90
4964;DHT22;2497;47.410;9.740;2023-11-21T02:47:06;8.30;99.90
4964;DHT22;2497;47.410;9.740;2023-11-21T02:49:34;8.20;99.90
4964;DHT22;2497;47.410;9.740;2023-11-21T02:52:01;8.20;99.90
4964;DHT22;2497;47.410;9.740;2023-11-21T02:54:29;8.20;99.90
4964;DHT22;2497;47.410;9.740;2023-11-21T02:56:56;8.10;99.90
4964;DHT22;2497;47.410;9.740;2023-11-21T02:59:25;8.10;99.90
4964;DHT22;2497;47.410;9.740;2023-11-21T03:01:52;8.10;99.90
4964;DHT22;2497;47.410;9.740;2023-11-21T03:04:20;8.10;99.90
4964;DHT22;2497;47.410;9.740;2023-11-21T03:06:47;8.10;99.90
4964;DHT22;2497;47.410;9.740;2023-11-21T03:09:14;8.10;99.90
4964;DHT22;2497;47.410;9.740;2023-11-21T03:11:42;8.10;99.90
4964;DHT22;2497;47.410;9.740;2023-11-21T03:14:09;8.10;99.90
4964;DHT22;2497;47.410;9.740;2023-11-21T03:16:38;8.00;99.90
4964;DHT22;2497;47.410;9.740;2023-11-21T03:19:06;7.90;99.90
4964;DHT22;2497;47.410;9.740;2023-11-21T03:21:33;8.00;99.90
4964;DHT22;2497;47.410;9.740;2023-11-21T03:24:01;8.00;99.90
4964;DHT22;2497;47.410;9.740;2023-11-21T03:26:28;8.00;99.90
4964;DHT22;2497;47.410;9.740;2023-11-21T03:28:55;8.00;99.90
4964;DHT22;2497;47.410;9.740;2023-11-21T03:31:22;7.90;99.90
4964;DHT22;2497;47.410;9.740;2023-11-21T03:33:51;7.90;99.90
4964;DHT22;2497;47.410;9.740;2023-11-21T03:36:19;7.90;99.90
4964;DHT22;2497;47.410;9.740;2023-11-21T03:38:48;7.90;99.90
4964;DHT22;2497;47.410;9.740;2023-11-21T03:41:15;7.90;99.90
4964;DHT22;2497;47.410;9.740;2023-11-21T03:43:42;7.90;99.90
4964;DHT22;2497;47.410;9.740;2023-11-21T03:46:09;7.90;99.90
4964;DHT22;2497;47.410;9.740;2023-11-21T03:48:37;7.80;99.90
4964;DHT22;2497;47.410;9.740;2023-11-21T03:51:06;7.70;99.90
4964;DHT22;2497;47.410;9.740;2023-11-21T03:53:34;7.70;99.90
4964;DHT22;2497;47.410;9.740;2023-11-21T03:56:05;7.70;99.90
4964;DHT22;2497;47.410;9.740;2023-11-21T03:58:32;7.70;99.90
4964;DHT22;2497;47.410;9.740;2023-11-21T04:00:59;7.70;99.90
4964;DHT22;2497;47.410;9.740;2023-11-21T04:03:27;7.70;99.90
4964;DHT22;2497;47.410;9.740;2023-11-21T04:05:54;7.70;99.90
4964;DHT22;2497;47.410;9.740;2023-11-21T04:08:22;7.70;99.90
4964;DHT22;2497;47.410;9.740;2023-11-21T04:10:51;7.70;99.90
4964;DHT22;2497;47.410;9.740;2023-11-21T04:13:19;7.70;99.90
4964;DHT22;2497;47.410;9.740;2023-11-21T04:15:46;7.60;99.90
4964;DHT22;2497;47.410;9.740;2023-11-21T04:18:13;7.60;99.90
4964;DHT22;2497;47.410;9.740;2023-11-21T04:20:40;7.60;99.90
4964;DHT22;2497;47.410;9.740;2023-11-21T04:23:07;7.60;99.90
4964;DHT22;2497;47.410;9.740;2023-11-21T04:25:37;7.50;99.90
4964;DHT22;2497;47.410;9.740;2023-11-21T04:28:04;7.50;99.90
4964;DHT22;2497;47.410;9.740;2023-11-21T04:30:31;7.40;99.90
4964;DHT22;2497;47.410;9.740;2023-11-21T04:32:58;7.40;99.90
4964;DHT22;2497;47.410;9.740;2023-11-21T04:35:25;7.40;99.90
4964;DHT22;2497;47.410;9.740;2023-11-21T04:37:53;7.30;99.90
4964;DHT22;2497;47.410;9.740;2023-11-21T04:40:20;7.30;99.90
4964;DHT22;2497;47.410;9.740;2023-11-21T04:42:49;7.30;99.90
4964;DHT22;2497;47.410;9.740;2023-11-21T04:45:28;7.30;99.90
4964;DHT22;2497;47.410;9.740;2023-11-21T04:47:55;7.30;99.90
4964;DHT22;2497;47.410;9.740;2023-11-21T04:50:22;7.40;99.90
4964;DHT22;2497;47.410;9.740;2023-11-21T04:52:51;7.30;99.90
4964;DHT22;2497;47.410;9.740;2023-11-21T04:55:19;7.30;99.90
4964;DHT22;2497;47.410;9.740;2023-11-21T04:57:47;7.20;99.90
4964;DHT22;2497;47.410;9.740;2023-11-21T05:00:15;7.20;99.90
4964;DHT22;2497;47.410;9.740;2023-11-21T05:02:42;7.20;99.90
4964;DHT22;2497;47.410;9.740;2023-11-21T05:05:10;7.20;99.90
4964;DHT22;2497;47.410;9.740;2023-11-21T05:07:38;7.10;99.90
4964;DHT22;2497;47.410;9.740;2023-11-21T05:10:07;7.10;99.90
4964;DHT22;2497;47.410;9.740;2023-11-21T05:12:37;7.10;99.90
4964;DHT22;2497;47.410;9.740;2023-11-21T05:15:07;7.10;99.90
4964;DHT22;2497;47.410;9.740;2023-11-21T05:17:35;7.00;99.90
4964;DHT22;2497;47.410;9.740;2023-11-21T05:20:03;7.10;99.90
4964;DHT22;2497;47.410;9.740;2023-11-21T05:22:34;7.10;99.90
4964;DHT22;2497;47.410;9.740;2023-11-21T05:25:01;7.10;99.90
4964;DHT22;2497;47.410;9.740;2023-11-21T05:27:29;7.10;99.90
4964;DHT22;2497;47.410;9.740;2023-11-21T05:29:57;7.00;99.90
4964;DHT22;2497;47.410;9.740;2023-11-21T05:32:25;7.00;99.90
4964;DHT22;2497;47.410;9.740;2023-11-21T05:34:52;7.00;99.90
4964;DHT22;2497;47.410;9.740;2023-11-21T05:37:19;7.00;99.90
4964;DHT22;2497;47.410;9.740;2023-11-21T05:39:46;7.00;99.90
4964;DHT22;2497;47.410;9.740;2023-11-21T05:42:13;7.00;99.90
4964;DHT22;2497;47.410;9.740;2023-11-21T05:44:42;7.00;99.90
4964;DHT22;2497;47.410;9.740;2023-11-21T05:47:22;7.00;99.90
4964;DHT22;2497;47.410;9.740;2023-11-21T05:49:50;7.00;99.90
4964;DHT22;2497;47.410;9.740;2023-11-21T05:52:17;6.90;99.90
4964;DHT22;2497;47.410;9.740;2023-11-21T05:54:44;6.90;99.90
4964;DHT22;2497;47.410;9.740;2023-11-21T05:57:11;6.90;99.90
4964;DHT22;2497;47.410;9.740;2023-11-21T05:59:38;6.80;99.90
4964;DHT22;2497;47.410;9.740;2023-11-21T06:02:06;6.80;99.90
4964;DHT22;2497;47.410;9.740;2023-11-21T06:04:33;6.80;99.90
4964;DHT22;2497;47.410;9.740;2023-11-21T06:07:01;6.70;99.90
4964;DHT22;2497;47.410;9.740;2023-11-21T06:09:29;6.70;99.90
4964;DHT22;2497;47.410;9.740;2023-11-21T06:11:57;6.70;99.90
4964;DHT22;2497;47.410;9.740;2023-11-21T06:14:24;6.70;99.90
4964;DHT22;2497;47.410;9.740;2023-11-21T06:16:51;6.70;99.90
4964;DHT22;2497;47.410;9.740;2023-11-21T06:19:18;6.70;99.90
4964;DHT22;2497;47.410;9.740;2023-11-21T06:21:46;6.60;99.90
4964;DHT22;2497;47.410;9.740;2023-11-21T06:24:15;6.70;99.90
4964;DHT22;2497;47.410;9.740;2023-11-21T06:26:42;6.70;99.90
4964;DHT22;2497;47.410;9.740;2023-11-21T06:29:11;6.60;99.90
4964;DHT22;2497;47.410;9.740;2023-11-21T06:31:37;6.70;99.90
4964;DHT22;2497;47.410;9.740;2023-11-21T06:34:06;6.70;99.90
4964;DHT22;2497;47.410;9.740;2023-11-21T06:36:34;6.70;99.90
4964;DHT22;2497;47.410;9.740;2023-11-21T06:39:01;6.70;99.90
4964;DHT22;2497;47.410;9.740;2023-11-21T06:41:34;6.60;99.90
4964;DHT22;2497;47.410;9.740;2023-11-21T06:44:04;6.60;99.90
4964;DHT22;2497;47.410;9.740;2023-11-21T06:46:31;6.60;99.90
4964;DHT22;2497;47.410;9.740;2023-11-21T06:48:59;6.60;99.90
4964;DHT22;2497;47.410;9.740;2023-11-21T06:51:26;6.60;99.90
4964;DHT22;2497;47.410;9.740;2023-11-21T06:53:53;6.60;99.90
4964;DHT22;2497;47.410;9.740;2023-11-21T06:56:20;6.60;99.90
4964;DHT22;2497;47.410;9.740;2023-11-21T06:58:48;6.60;99.90
4964;DHT22;2497;47.410;9.740;2023-11-21T07:01:19;6.60;99.90
4964;DHT22;2497;47.410;9.740;2023-11-21T07:03:46;6.60;99.90
4964;DHT22;2497;47.410;9.740;2023-11-21T07:06:13;6.60;99.90
4964;DHT22;2497;47.410;9.740;2023-11-21T07:08:40;6.60;99.90
4964;DHT22;2497;47.410;9.740;2023-11-21T07:11:08;6.60;99.90
4964;DHT22;2497;47.410;9.740;2023-11-21T07:13:35;6.60;99.90
4964;DHT22;2497;47.410;9.740;2023-11-21T07:16:04;6.60;99.90
4964;DHT22;2497;47.410;9.740;2023-11-21T07:18:31;6.70;99.90
4964;DHT22;2497;47.410;9.740;2023-11-21T07:20:58;6.70;99.90
4964;DHT22;2497;47.410;9.740;2023-11-21T07:23:25;6.70;99.90
4964;DHT22;2497;47.410;9.740;2023-11-21T07:25:53;6.70;99.90
4964;DHT22;2497;47.410;9.740;2023-11-21T07:28:20;6.80;99.90
4964;DHT22;2497;47.410;9.740;2023-11-21T07:30:46;6.80;99.90
4964;DHT22;2497;47.410;9.740;2023-11-21T07:33:15;6.80;99.90
4964;DHT22;2497;47.410;9.740;2023-11-21T07:35:43;6.80;99.90
4964;DHT22;2497;47.410;9.740;2023-11-21T07:38:10;6.80;99.90
4964;DHT22;2497;47.410;9.740;2023-11-21T07:40:37;6.80;99.90
4964;DHT22;2497;47.410;9.740;2023-11-21T07:43:04;6.80;99.90
4964;DHT22;2497;47.410;9.740;2023-11-21T07:45:31;6.80;99.90
4964;DHT22;2497;47.410;9.740;2023-11-21T07:47:58;6.80;99.90
4964;DHT22;2497;47.410;9.740;2023-11-21T07:50:27;6.90;99.90
4964;DHT22;2497;47.410;9.740;2023-11-21T07:52:54;6.90;99.90
4964;DHT22;2497;47.410;9.740;2023-11-21T07:55:22;6.90;99.90
4964;DHT22;2497;47.410;9.740;2023-11-21T07:57:50;6.90;99.90
4964;DHT22;2497;47.410;9.740;2023-11-21T08:00:18;7.00;99.90
4964;DHT22;2497;47.410;9.740;2023-11-21T08:02:47;7.00;99.90
4964;DHT22;2497;47.410;9.740;2023-11-21T08:05:14;7.00;99.90
4964;DHT22;2497;47.410;9.740;2023-11-21T08:07:42;7.00;99.90
4964;DHT22;2497;47.410;9.740;2023-11-21T08:10:09;7.00;99.90
4964;DHT22;2497;47.410;9.740;2023-11-21T08:12:37;7.10;99.90
4964;DHT22;2497;47.410;9.740;2023-11-21T08:15:06;7.10;99.90
4964;DHT22;2497;47.410;9.740;2023-11-21T08:17:33;7.10;99.90
4964;DHT22;2497;47.410;9.740;2023-11-21T08:20:01;7.20;99.90
4964;DHT22;2497;47.410;9.740;2023-11-21T08:22:29;7.20;99.90
4964;DHT22;2497;47.410;9.740;2023-11-21T08:24:57;7.20;99.90
4964;DHT22;2497;47.410;9.740;2023-11-21T08:27:24;7.30;99.90
4964;DHT22;2497;47.410;9.740;2023-11-21T08:29:51;7.20;99.90
4964;DHT22;2497;47.410;9.740;2023-11-21T08:32:19;7.20;99.90
4964;DHT22;2497;47.410;9.740;2023-11-21T08:34:45;7.20;99.90
4964;DHT22;2497;47.410;9.740;2023-11-21T08:37:16;7.20;99.90
4964;DHT22;2497;47.410;9.740;2023-11-21T08:39:44;7.10;99.90
4964;DHT22;2497;47.410;9.740;2023-11-21T08:42:13;7.10;99.90
4964;DHT22;2497;47.410;9.740;2023-11-21T08:44:40;7.10;99.90
4964;DHT22;2497;47.410;9.740;2023-11-21T08:47:07;7.10;99.90
4964;DHT22;2497;47.410;9.740;2023-11-21T08:49:34;7.20;99.90
4964;DHT22;2497;47.410;9.740;2023-11-21T08:52:02;7.20;99.90
4964;DHT22;2497;47.410;9.740;2023-11-21T08:54:30;7.10;99.90
4964;DHT22;2497;47.410;9.740;2023-11-21T08:56:57;7.10;99.90
4964;DHT22;2497;47.410;9.740;2023-11-21T08:59:26;7.10;99.90
4964;DHT22;2497;47.410;9.740;2023-11-21T09:01:53;7.10;99.90
4964;DHT22;2497;47.410;9.740;2023-11-21T09:04:20;7.10;99.90
4964;DHT22;2497;47.410;9.740;2023-11-21T09:06:47;7.20;99.90
4964;DHT22;2497;47.410;9.740;2023-11-21T09:09:14;7.20;99.90
4964;DHT22;2497;47.410;9.740;2023-11-21T09:11:41;7.20;99.90
4964;DHT22;2497;47.410;9.740;2023-11-21T09:14:10;7.20;99.90
4964;DHT22;2497;47.410;9.740;2023-11-21T09:16:40;7.10;99.90
4964;DHT22;2497;47.410;9.740;2023-11-21T09:19:07;7.20;99.90
4964;DHT22;2497;47.410;9.740;2023-11-21T09:21:34;7.20;99.90
4964;DHT22;2497;47.410;9.740;2023-11-21T09:24:01;7.20;99.90
4964;DHT22;2497;47.410;9.740;2023-11-21T09:26:29;7.20;99.90
4964;DHT22;2497;47.410;9.740;2023-11-21T09:28:56;7.30;99.90
4964;DHT22;2497;47.410;9.740;2023-11-21T09:31:23;7.40;99.90
4964;DHT22;2497;47.410;9.740;2023-11-21T09:33:52;7.50;99.90
4964;DHT22;2497;47.410;9.740;2023-11-21T09:36:19;7.50;99.90
4964;DHT22;2497;47.410;9.740;2023-11-21T09:38:48;7.60;99.90
4964;DHT22;2497;47.410;9.740;2023-11-21T09:41:21;7.80;99.90
4964;DHT22;2497;47.410;9.740;2023-11-21T09:43:51;7.80;99.90
4964;DHT22;2497;47.410;9.740;2023-11-21T09:46:21;7.90;99.90
4964;DHT22;2497;47.410;9.740;2023-11-21T09:48:52;8.10;99.90
4964;DHT22;2497;47.410;9.740;2023-11-21T09:51:24;8.20;99.90
4964;DHT22;2497;47.410;9.740;2023-11-21T09:53:57;8.30;99.90
4964;DHT22;2497;47.410;9.740;2023-11-21T09:56:27;8.20;99.90
4964;DHT22;2497;47.410;9.740;2023-11-21T09:58:55;8.30;99.90
4964;DHT22;2497;47.410;9.740;2023-11-21T10:01:25;8.40;99.90
4964;DHT22;2497;47.410;9.740;2023-11-21T10:03:54;8.50;99.90
4964;DHT22;2497;47.410;9.740;2023-11-21T10:06:22;8.50;99.90
4964;DHT22;2497;47.410;9.740;2023-11-21T10:08:52;8.50;99.90
4964;DHT22;2497;47.410;9.740;2023-11-21T10:11:23;8.60;99.90
4964;DHT22;2497;47.410;9.740;2023-11-21T10:13:53;8.60;99.90
4964;DHT22;2497;47.410;9.740;2023-11-21T10:16:25;8.70;99.90
4964;DHT22;2497;47.410;9.740;2023-11-21T10:18:54;8.70;99.90
4964;DHT22;2497;47.410;9.740;2023-11-21T10:21:22;8.80;99.90
4964;DHT22;2497;47.410;9.740;2023-11-21T10:23:50;8.70;99.90
4964;DHT22;2497;47.410;9.740;2023-11-21T10:26:19;8.80;99.90
4964;DHT22;2497;47.410;9.740;2023-11-21T10:28:56;8.80;99.90
4964;DHT22;2497;47.410;9.740;2023-11-21T10:31:24;8.80;99.90
4964;DHT22;2497;47.410;9.740;2023-11-21T10:33:51;8.70;99.90
4964;DHT22;2497;47.410;9.740;2023-11-21T10:36:27;8.70;99.90
4964;DHT22;2497;47.410;9.740;2023-11-21T10:38:54;8.60;99.90
4964;DHT22;2497;47.410;9.740;2023-11-21T10:41:22;8.60;99.90
4964;DHT22;2497;47.410;9.740;2023-11-21T10:43:53;8.60;99.90
4964;DHT22;2497;47.410;9.740;2023-11-21T10:46:21;8.50;99.90
4964;DHT22;2497;47.410;9.740;2023-11-21T10:48:52;8.50;99.90
4964;DHT22;2497;47.410;9.740;2023-11-21T10:51:21;8.40;99.90
4964;DHT22;2497;47.410;9.740;2023-11-21T10:53:51;8.40;99.90
4964;DHT22;2497;47.410;9.740;2023-11-21T10:56:19;8.30;99.90
4964;DHT22;2497;47.410;9.740;2023-11-21T10:58:50;8.30;99.90
4964;DHT22;2497;47.410;9.740;2023-11-21T11:01:18;8.40;99.90
4964;DHT22;2497;47.410;9.740;2023-11-21T11:03:47;8.40;99.90
4964;DHT22;2497;47.410;9.740;2023-11-21T11:06:16;8.40;99.90
4964;DHT22;2497;47.410;9.740;2023-11-21T11:08:44;8.40;99.90
4964;DHT22;2497;47.410;9.740;2023-11-21T11:11:13;8.40;99.90
4964;DHT22;2497;47.410;9.740;2023-11-21T11:13:43;8.40;99.90
4964;DHT22;2497;47.410;9.740;2023-11-21T11:16:12;8.40;99.90
4964;DHT22;2497;47.410;9.740;2023-11-21T11:18:42;8.40;99.90
4964;DHT22;2497;47.410;9.740;2023-11-21T11:21:19;8.50;99.90
4964;DHT22;2497;47.410;9.740;2023-11-21T11:24:04;8.60;99.90
4964;DHT22;2497;47.410;9.740;2023-11-21T11:26:39;8.60;99.90
4964;DHT22;2497;47.410;9.740;2023-11-21T11:29:16;8.50;99.90
4964;DHT22;2497;47.410;9.740;2023-11-21T11:31:57;8.40;99.90
4964;DHT22;2497;47.410;9.740;2023-11-21T11:34:31;8.40;99.90
4964;DHT22;2497;47.410;9.740;2023-11-21T11:37:01;8.40;99.90
4964;DHT22;2497;47.410;9.740;2023-11-21T11:39:30;8.40;99.90
4964;DHT22;2497;47.410;9.740;2023-11-21T11:42:02;8.40;99.90
4964;DHT22;2497;47.410;9.740;2023-11-21T11:44:50;8.40;99.90
4964;DHT22;2497;47.410;9.740;2023-11-21T11:47:25;8.70;99.90
4964;DHT22;2497;47.410;9.740;2023-11-21T11:50:07;8.90;99.90
4964;DHT22;2497;47.410;9.740;2023-11-21T11:52:39;9.00;99.90
4964;DHT22;2497;47.410;9.740;2023-11-21T11:55:09;9.20;99.90
4964;DHT22;2497;47.410;9.740;2023-11-21T11:57:41;9.20;99.90
4964;DHT22;2497;47.410;9.740;2023-11-21T12:00:10;9.30;99.90
4964;DHT22;2497;47.410;9.740;2023-11-21T12:02:41;9.20;99.90
4964;DHT22;2497;47.410;9.740;2023-11-21T12:05:10;9.10;99.90
4964;DHT22;2497;47.410;9.740;2023-11-21T12:07:50;9.30;99.90
4964;DHT22;2497;47.410;9.740;2023-11-21T12:10:20;9.20;99.90
4964;DHT22;2497;47.410;9.740;2023-11-21T12:12:52;9.30;99.90
4964;DHT22;2497;47.410;9.740;2023-11-21T12:15:20;9.20;99.90
4964;DHT22;2497;47.410;9.740;2023-11-21T12:17:48;9.10;99.90
4964;DHT22;2497;47.410;9.740;2023-11-21T12:20:18;9.10;99.90
4964;DHT22;2497;47.410;9.740;2023-11-21T12:22:46;9.00;99.90
4964;DHT22;2497;47.410;9.740;2023-11-21T12:25:15;9.00;99.90
4964;DHT22;2497;47.410;9.740;2023-11-21T12:27:45;8.90;99.90
4964;DHT22;2497;47.410;9.740;2023-11-21T12:30:17;8.90;99.90
4964;DHT22;2497;47.410;9.740;2023-11-21T12:32:47;8.90;99.90
4964;DHT22;2497;47.410;9.740;2023-11-21T12:35:14;9.00;99.90
4964;DHT22;2497;47.410;9.740;2023-11-21T12:37:45;9.00;99.90
4964;DHT22;2497;47.410;9.740;2023-11-21T12:40:13;9.00;99.90
4964;DHT22;2497;47.410;9.740;2023-11-21T12:42:42;9.00;99.90
4964;DHT22;2497;47.410;9.740;2023-11-21T12:45:18;9.00;99.90
4964;DHT22;2497;47.410;9.740;2023-11-21T12:47:48;9.10;99.90
4964;DHT22;2497;47.410;9.740;2023-11-21T12:50:18;9.20;99.90
4964;DHT22;2497;47.410;9.740;2023-11-21T12:52:50;9.20;99.90
4964;DHT22;2497;47.410;9.740;2023-11-21T12:55:20;9.20;99.90
4964;DHT22;2497;47.410;9.740;2023-11-21T12:57:49;9.00;99.90
4964;DHT22;2497;47.410;9.740;2023-11-21T13:00:31;8.80;99.90
4964;DHT22;2497;47.410;9.740;2023-11-21T13:03:05;8.70;99.90
4964;DHT22;2497;47.410;9.740;2023-11-21T13:05:33;8.80;99.90
4964;DHT22;2497;47.410;9.740;2023-11-21T13:08:02;8.70;99.90
4964;DHT22;2497;47.410;9.740;2023-11-21T13:10:34;8.60;99.90
4964;DHT22;2497;47.410;9.740;2023-11-21T13:13:03;8.60;99.90
4964;DHT22;2497;47.410;9.740;2023-11-21T13:15:34;8.60;99.90
4964;DHT22;2497;47.410;9.740;2023-11-21T13:18:03;8.70;99.90
4964;DHT22;2497;47.410;9.740;2023-11-21T13:20:30;8.70;99.90
4964;DHT22;2497;47.410;9.740;2023-11-21T13:22:58;8.80;99.90
4964;DHT22;2497;47.410;9.740;2023-11-21T13:25:27;8.80;99.90
4964;DHT22;2497;47.410;9.740;2023-11-21T13:27:54;8.90;99.90
4964;DHT22;2497;47.410;9.740;2023-11-21T13:30:22;9.00;99.90
4964;DHT22;2497;47.410;9.740;2023-11-21T13:32:53;9.10;99.90
4964;DHT22;2497;47.410;9.740;2023-11-21T13:35:24;9.20;99.90
4964;DHT22;2497;47.410;9.740;2023-11-21T13:38:04;9.30;99.90
4964;DHT22;2497;47.410;9.740;2023-11-21T13:40:32;9.30;99.90
4964;DHT22;2497;47.410;9.740;2023-11-21T13:43:05;9.30;99.90
4964;DHT22;2497;47.410;9.740;2023-11-21T13:45:35;9.20;99.90
4964;DHT22;2497;47.410;9.740;2023-11-21T13:48:02;9.10;99.90
4964;DHT22;2497;47.410;9.740;2023-11-21T13:50:33;9.10;99.90
4964;DHT22;2497;47.410;9.740;2023-11-21T13:53:01;9.00;99.90
4964;DHT22;2497;47.410;9.740;2023-11-21T13:55:36;8.90;99.90
4964;DHT22;2497;47.410;9.740;2023-11-21T13:58:05;8.90;99.90
4964;DHT22;2497;47.410;9.740;2023-11-21T14:00:35;8.80;99.90
4964;DHT22;2497;47.410;9.740;2023-11-21T14:03:10;8.80;99.90
4964;DHT22;2497;47.410;9.740;2023-11-21T14:05:46;8.70;99.90
4964;DHT22;2497;47.410;9.740;2023-11-21T14:08:18;8.60;99.90
4964;DHT22;2497;47.410;9.740;2023-11-21T14:10:46;8.50;99.90
4964;DHT22;2497;47.410;9.740;2023-11-21T14:13:19;8.40;99.90
4964;DHT22;2497;47.410;9.740;2023-11-21T14:15:49;8.30;99.90
4964;DHT22;2497;47.410;9.740;2023-11-21T14:18:18;8.20;99.90
4964;DHT22;2497;47.410;9.740;2023-11-21T14:20:57;8.10;99.90
4964;DHT22;2497;47.410;9.740;2023-11-21T14:23:24;8.10;99.90
4964;DHT22;2497;47.410;9.740;2023-11-21T14:25:51;8.10;99.90
4964;DHT22;2497;47.410;9.740;2023-11-21T14:28:19;8.20;99.90
4964;DHT22;2497;47.410;9.740;2023-11-21T14:30:46;8.10;99.90
4964;DHT22;2497;47.410;9.740;2023-11-21T14:33:13;8.10;99.90
4964;DHT22;2497;47.410;9.740;2023-11-21T14:35:42;8.10;99.90
4964;DHT22;2497;47.410;9.740;2023-11-21T14:38:11;8.10;99.90
4964;DHT22;2497;47.410;9.740;2023-11-21T14:40:40;8.10;99.90
4964;DHT22;2497;47.410;9.740;2023-11-21T14:43:07;8.10;99.90
4964;DHT22;2497;47.410;9.740;2023-11-21T14:45:34;8.10;99.90
4964;DHT22;2497;47.410;9.740;2023-11-21T14:48:01;8.10;99.90
4964;DHT22;2497;47.410;9.740;2023-11-21T14:50:42;8.10;99.90
4964;DHT22;2497;47.410;9.740;2023-11-21T14:53:39;8.10;99.90
4964;DHT22;2497;47.410;9.740;2023-11-21T14:56:19;8.10;99.90
4964;DHT22;2497;47.410;9.740;2023-11-21T14:58:53;8.10;99.90
4964;DHT22;2497;47.410;9.740;2023-11-21T15:01:20;8.10;99.90
4964;DHT22;2497;47.410;9.740;2023-11-21T15:03:59;8.10;99.90
4964;DHT22;2497;47.410;9.740;2023-11-21T15:06:25;8.10;99.90
4964;DHT22;2497;47.410;9.740;2023-11-21T15:08:57;8.10;99.90
4964;DHT22;2497;47.410;9.740;2023-11-21T15:11:42;8.00;99.90
4964;DHT22;2497;47.410;9.740;2023-11-21T15:14:09;8.00;99.90
4964;DHT22;2497;47.410;9.740;2023-11-21T15:16:41;8.00;99.90
4964;DHT22;2497;47.410;9.740;2023-11-21T15:19:12;7.90;99.90
4964;DHT22;2497;47.410;9.740;2023-11-21T15:21:43;7.90;99.90
4964;DHT22;2497;47.410;9.740;2023-11-21T15:24:13;7.90;99.90
4964;DHT22;2497;47.410;9.740;2023-11-21T15:26:40;7.90;99.90
4964;DHT22;2497;47.410;9.740;2023-11-21T15:29:10;7.80;99.90
4964;DHT22;2497;47.410;9.740;2023-11-21T15:31:38;7.90;99.90
4964;DHT22;2497;47.410;9.740;2023-11-21T15:34:09;7.80;99.90
4964;DHT22;2497;47.410;9.740;2023-11-21T15:36:36;7.80;99.90
4964;DHT22;2497;47.410;9.740;2023-11-21T15:39:04;7.80;99.90
4964;DHT22;2497;47.410;9.740;2023-11-21T15:41:32;7.80;99.90
4964;DHT22;2497;47.410;9.740;2023-11-21T15:43:59;7.80;99.90
4964;DHT22;2497;47.410;9.740;2023-11-21T15:46:27;7.80;99.90
4964;DHT22;2497;47.410;9.740;2023-11-21T15:48:54;7.70;99.90
4964;DHT22;2497;47.410;9.740;2023-11-21T15:51:21;7.70;99.90
4964;DHT22;2497;47.410;9.740;2023-11-21T15:53:48;7.80;99.90
4964;DHT22;2497;47.410;9.740;2023-11-21T15:56:15;7.60;99.90
4964;DHT22;2497;47.410;9.740;2023-11-21T15:58:44;7.60;99.90
4964;DHT22;2497;47.410;9.740;2023-11-21T16:01:12;7.60;99.90
4964;DHT22;2497;47.410;9.740;2023-11-21T16:03:39;7.60;99.90
4964;DHT22;2497;47.410;9.740;2023-11-21T16:06:07;7.50;99.90
4964;DHT22;2497;47.410;9.740;2023-11-21T16:08:35;7.50;99.90
4964;DHT22;2497;47.410;9.740;2023-11-21T16:11:04;7.40;99.90
4964;DHT22;2497;47.410;9.740;2023-11-21T16:13:31;7.40;99.90
4964;DHT22;2497;47.410;9.740;2023-11-21T16:16:01;7.40;99.90
4964;DHT22;2497;47.410;9.740;2023-11-21T16:18:28;7.50;99.90
4964;DHT22;2497;47.410;9.740;2023-11-21T16:20:55;7.40;99.90
4964;DHT22;2497;47.410;9.740;2023-11-21T16:23:22;7.40;99.90
4964;DHT22;2497;47.410;9.740;2023-11-21T16:25:49;7.50;99.90
4964;DHT22;2497;47.410;9.740;2023-11-21T16:28:21;7.50;99.90